Time;durP1;ratioP1;P1;durP2;ratioP2;P2;SDS_P1;SDS_P2;PMS_P1;PMS_P2;Temp;Humidity;BMP_temperature;BMP_pressure;BME280_temperature;BME280_humidity;BME280_pressure;Samples;Min_cycle;Max_cycle;Signal;HPM_P1;HPM_P2
2023/06/02 05:09:41;;;;;;;13.13;10.02;;;;;;;19.47;68.33;100126.69;5606884;31;75817;-57
2023/06/02 05:12:44;;;;;;;13.38;9.60;;;;;;;19.56;68.02;100137.41;5583918;31;33259;-56
2023/06/02 05:15:46;;;;;;;13.85;8.82;;;;;;;19.75;69.28;100147.66;5582839;31;34345;-57
2023/06/02 05:18:50;;;;;;;13.80;9.18;;;;;;;19.95;69.67;100138.50;5583797;31;33466;-57
2023/06/02 05:21:52;;;;;;;15.80;9.10;;;;;;;20.17;73.40;100137.91;5583746;31;33683;-56
2023/06/02 05:24:55;;;;;;;10.57;9.10;;;;;;;20.37;67.04;100136.06;5583906;31;33593;-57
2023/06/02 05:27:57;;;;;;;10.32;9.10;;;;;;;20.58;69.28;100138.53;5583570;31;34245;-57
2023/06/02 05:31:00;;;;;;;15.73;9.02;;;;;;;20.79;65.89;100146.38;5583785;31;33263;-56
2023/06/02 05:34:05;;;;;;;13.65;8.80;;;;;;;20.96;65.00;100137.06;5583717;31;33350;-57
2023/06/02 05:37:07;;;;;;;14.10;9.07;;;;;;;21.11;66.00;100138.13;5582469;32;34297;-57
2023/06/02 05:40:11;;;;;;;13.38;8.55;;;;;;;21.23;65.16;100134.50;5583188;31;33461;-57
2023/06/02 05:43:16;;;;;;;13.75;7.95;;;;;;;21.31;65.24;100137.00;5583422;31;34299;-56
2023/06/02 05:46:19;;;;;;;17.08;9.50;;;;;;;21.45;65.87;100141.97;5582413;32;33619;-57
2023/06/02 05:49:22;;;;;;;11.15;9.15;;;;;;;21.57;67.16;100138.31;5563820;32;33617;-58
2023/06/02 05:52:24;;;;;;;21.87;8.93;;;;;;;21.74;65.31;100132.41;5563862;32;34272;-57
2023/06/02 05:55:27;;;;;;;17.05;9.25;;;;;;;21.89;63.55;100138.16;5563795;32;33215;-57
2023/06/02 05:58:31;;;;;;;12.40;8.75;;;;;;;21.99;63.30;100132.09;5563409;32;34392;-58
2023/06/02 06:01:34;;;;;;;16.02;8.57;;;;;;;22.15;65.90;100129.22;5563495;32;33089;-57
2023/06/02 06:04:37;;;;;;;13.68;8.90;;;;;;;22.30;63.02;100131.09;5562766;32;33180;-58
2023/06/02 06:07:39;;;;;;;18.15;9.40;;;;;;;22.37;61.50;100128.47;5563060;32;33493;-57
2023/06/02 06:10:42;;;;;;;17.00;9.15;;;;;;;22.47;61.87;100132.50;5563400;32;33374;-57
2023/06/02 06:13:45;;;;;;;12.20;8.57;;;;;;;22.53;60.79;100122.84;5570265;32;34523;-56
2023/06/02 06:16:48;;;;;;;14.82;9.32;;;;;;;22.56;63.43;100126.81;5582510;32;33694;-58
2023/06/02 06:19:51;;;;;;;14.35;8.50;;;;;;;22.49;63.90;100122.81;5572715;32;34626;-57
2023/06/02 06:22:54;;;;;;;15.60;8.90;;;;;;;22.57;64.58;100128.37;5568702;32;33470;-56
2023/06/02 06:25:57;;;;;;;25.00;10.10;;;;;;;22.77;63.70;100132.56;5566408;31;33022;-57
2023/06/02 06:29:00;;;;;;;17.45;8.05;;;;;;;22.93;63.12;100132.44;5568877;31;33616;-57
2023/06/02 06:32:05;;;;;;;12.10;8.20;;;;;;;23.08;61.97;100126.03;5568720;32;33649;-58
2023/06/02 06:35:09;;;;;;;18.00;8.65;;;;;;;23.32;60.56;100132.16;5568761;31;33556;-57
2023/06/02 06:38:11;;;;;;;15.38;8.32;;;;;;;23.45;59.93;100126.06;5567798;32;34441;-57
2023/06/02 06:41:14;;;;;;;11.00;8.13;;;;;;;23.45;59.58;100133.50;5565279;32;33546;-57
2023/06/02 06:44:17;;;;;;;13.23;8.73;;;;;;;23.37;59.90;100131.81;5568225;32;33473;-57
2023/06/02 06:47:20;;;;;;;16.10;8.43;;;;;;;23.32;60.87;100134.91;5569087;32;34386;-57
2023/06/02 06:50:23;;;;;;;10.85;8.80;;;;;;;23.30;61.99;100137.22;5569727;32;33350;-57
2023/06/02 06:53:27;;;;;;;10.93;8.88;;;;;;;23.29;62.64;100141.13;5569500;32;33559;-57
2023/06/02 06:56:30;;;;;;;9.93;7.85;;;;;;;23.34;61.02;100136.09;5568452;32;33635;-56
2023/06/02 06:59:33;;;;;;;16.80;8.15;;;;;;;23.50;61.31;100140.56;5567743;32;33630;-57
2023/06/02 07:02:35;;;;;;;14.10;8.23;;;;;;;23.68;60.96;100138.87;5568879;32;34360;-57
2023/06/02 07:05:38;;;;;;;16.33;9.07;;;;;;;23.89;60.58;100135.56;5569385;32;33563;-57
2023/06/02 07:08:40;;;;;;;14.82;7.78;;;;;;;24.08;61.04;100143.56;5569749;32;33650;-57
2023/06/02 07:11:43;;;;;;;10.48;7.37;;;;;;;24.14;59.31;100136.59;5568955;32;33562;-57
2023/06/02 07:14:45;;;;;;;11.05;7.37;;;;;;;24.11;58.98;100142.81;5567818;32;33650;-57
2023/06/02 07:17:47;;;;;;;9.13;7.45;;;;;;;24.25;58.94;100138.63;5569165;32;33648;-57
2023/06/02 07:20:50;;;;;;;15.82;7.40;;;;;;;24.30;58.13;100130.03;5569662;32;33676;-58
2023/06/02 07:23:53;;;;;;;11.82;7.70;;;;;;;24.23;58.24;100133.50;5569401;32;33557;-57
2023/06/02 07:26:57;;;;;;;10.25;7.20;;;;;;;24.19;58.84;100134.66;5569609;32;33510;-57
2023/06/02 07:30:00;;;;;;;10.93;6.85;;;;;;;24.17;57.77;100132.28;5567573;32;33355;-57
2023/06/02 07:33:02;;;;;;;10.30;7.62;;;;;;;24.14;58.95;100135.81;5568587;32;33626;-57
2023/06/02 07:36:05;;;;;;;12.65;7.53;;;;;;;24.16;58.67;100122.50;5568373;32;34383;-58
2023/06/02 07:39:07;;;;;;;12.40;7.35;;;;;;;24.14;59.03;100133.84;5568800;32;33776;-57
2023/06/02 07:42:10;;;;;;;12.68;6.78;;;;;;;24.11;59.38;100126.38;5569328;32;33685;-58
2023/06/02 07:45:12;;;;;;;11.68;7.75;;;;;;;24.19;58.92;100121.75;5569221;32;33658;-57
2023/06/02 07:48:15;;;;;;;11.77;7.03;;;;;;;24.23;58.18;100124.50;5569108;31;33582;-58
2023/06/02 07:51:17;;;;;;;11.90;7.47;;;;;;;24.31;57.17;100120.69;5569309;32;33906;-57
2023/06/02 07:54:20;;;;;;;9.85;6.68;;;;;;;24.36;57.09;100126.56;5569215;32;33862;-57
2023/06/02 07:57:22;;;;;;;10.35;7.12;;;;;;;24.48;55.86;100122.78;5569122;32;33612;-58
2023/06/02 08:00:25;;;;;;;12.25;7.60;;;;;;;24.61;55.07;100121.31;5567743;32;33239;-57
2023/06/02 08:03:28;;;;;;;14.87;6.97;;;;;;;24.77;53.73;100118.28;5569082;32;33584;-59
2023/06/02 08:06:30;;;;;;;9.10;6.65;;;;;;;24.87;53.91;100121.44;5569050;32;33695;-59
2023/06/02 08:09:33;;;;;;;9.65;7.03;;;;;;;25.01;53.29;100116.06;5568578;32;34691;-59
2023/06/02 08:12:36;;;;;;;9.90;5.97;;;;;;;25.07;53.29;100120.00;5569205;32;33605;-59
2023/06/02 08:15:38;;;;;;;13.10;7.07;;;;;;;25.14;49.64;100120.06;5567641;32;34312;-59
2023/06/02 08:18:41;;;;;;;10.32;5.50;;;;;;;25.26;49.54;100116.19;5569012;32;33611;-59
2023/06/02 08:21:43;;;;;;;12.85;6.32;;;;;;;25.44;50.32;100108.03;5568970;32;33771;-59
2023/06/02 08:24:46;;;;;;;13.65;6.43;;;;;;;25.47;48.41;100113.53;5568994;32;33215;-59
2023/06/02 08:27:48;;;;;;;9.60;5.97;;;;;;;25.55;48.82;100117.06;5567876;32;33582;-59
2023/06/02 08:30:58;;;;;;;11.57;6.43;;;;;;;25.63;46.64;100113.19;5568795;32;34232;-59
2023/06/02 08:34:03;;;;;;;12.37;5.70;;;;;;;25.57;47.40;100120.22;5567889;32;34285;-59
2023/06/02 08:37:15;;;;;;;9.37;6.00;;;;;;;25.47;46.93;100116.28;5568715;32;34359;-59
2023/06/02 08:40:21;;;;;;;9.27;6.60;;;;;;;25.40;45.82;100109.97;5568483;32;34302;-59
2023/06/02 08:43:23;;;;;;;10.65;6.78;;;;;;;25.27;47.58;100109.53;5568259;32;34360;-59
2023/06/02 08:46:26;;;;;;;8.32;5.57;;;;;;;25.09;47.44;100112.94;5568682;32;33321;-59
2023/06/02 08:49:28;;;;;;;12.30;5.87;;;;;;;25.04;45.43;100107.84;5568449;32;33713;-59
2023/06/02 08:52:35;;;;;;;9.60;6.03;;;;;;;24.98;44.95;100106.62;5568732;32;33550;-58
2023/06/02 08:55:40;;;;;;;10.38;5.60;;;;;;;25.12;44.71;100110.66;5568273;32;33716;-58
2023/06/02 08:58:45;;;;;;;7.68;5.80;;;;;;;25.25;45.23;100109.13;5568651;32;33662;-59
2023/06/02 09:01:47;;;;;;;14.03;6.47;;;;;;;25.23;45.77;100100.50;5568340;32;33687;-59
2023/06/02 09:04:51;;;;;;;8.68;5.93;;;;;;;25.19;44.75;100096.97;5568612;32;33557;-59
2023/06/02 09:08:11;;;;;;;12.75;6.62;;;;;;;25.26;45.30;100086.78;5566221;32;33858;-59
2023/06/02 09:11:16;;;;;;;10.13;6.15;;;;;;;25.41;45.81;100092.34;5548776;32;33501;-59
2023/06/02 09:14:19;;;;;;;9.95;6.10;;;;;;;25.46;45.34;100091.94;5549278;32;33581;-59
2023/06/02 09:17:29;;;;;;;9.18;5.57;;;;;;;25.49;44.90;100086.47;5566708;32;34440;-59
2023/06/02 09:20:32;;;;;;;10.48;5.93;;;;;;;25.52;45.07;100087.66;5561275;32;33647;-59
2023/06/02 09:23:41;;;;;;;10.27;6.18;;;;;;;25.62;42.25;100075.91;5565895;32;34368;-59
2023/06/02 09:26:51;;;;;;;8.18;5.70;;;;;;;25.67;43.40;100083.78;5567930;32;33646;-59
2023/06/02 09:30:03;;;;;;;11.88;6.18;;;;;;;25.73;43.24;100071.22;5567805;32;34291;-59
2023/06/02 09:33:08;;;;;;;8.15;5.60;;;;;;;25.80;41.95;100075.97;5568217;32;33317;-59
2023/06/02 09:36:29;;;;;;;10.40;6.12;;;;;;;25.82;42.63;100067.34;5567804;32;33671;-59
2023/06/02 09:39:33;;;;;;;9.38;6.72;;;;;;;25.96;42.27;100072.81;5567642;32;33424;-59
2023/06/02 09:42:45;;;;;;;8.13;5.97;;;;;;;26.09;42.57;100062.22;5567680;32;34225;-59
2023/06/02 09:45:47;;;;;;;11.55;6.15;;;;;;;26.05;43.41;100070.47;5567078;32;33675;-59
2023/06/02 09:48:55;;;;;;;9.43;6.18;;;;;;;26.09;43.08;100063.00;5564027;32;33653;-59
2023/06/02 09:52:11;;;;;;;9.45;6.90;;;;;;;26.20;43.20;100050.06;5565841;32;33699;-59
2023/06/02 09:55:13;;;;;;;9.52;6.12;;;;;;;26.19;42.78;100045.75;5549439;32;34377;-59
2023/06/02 09:58:16;;;;;;;10.05;6.22;;;;;;;26.21;42.71;100067.34;5550824;32;33680;-59
2023/06/02 10:01:20;;;;;;;11.35;6.15;;;;;;;26.07;42.39;100067.34;5550693;32;34367;-59
2023/06/02 10:04:25;;;;;;;22.67;6.30;;;;;;;25.95;43.83;100090.50;5550688;32;33562;-59
2023/06/02 10:07:38;;;;;;;46.05;6.45;;;;;;;25.49;42.56;100083.72;5550489;32;33799;-59
2023/06/02 10:11:04;;;;;;;12.70;4.53;;;;;;;24.67;40.41;100094.34;5550726;32;33680;-58
2023/06/02 10:14:25;;;;;;;12.18;4.20;;;;;;;23.77;44.45;100103.75;5534577;32;34019;-58
2023/06/02 10:17:37;;;;;;;8.27;4.30;;;;;;;23.39;46.45;100107.63;5550431;32;33718;-58
2023/06/02 10:21:00;;;;;;;13.02;4.68;;;;;;;23.04;51.19;100121.66;5550609;32;34305;-58
2023/06/02 10:24:24;;;;;;;14.93;4.70;;;;;;;22.73;58.28;100105.19;5533581;32;34375;-58
2023/06/02 10:27:30;;;;;;;8.82;4.62;;;;;;;22.51;59.31;100106.81;5550194;32;34378;-58
2023/06/02 10:30:33;;;;;;;;;;;;;;;22.35;62.46;100098.00;5550527;32;33705;-58
2023/06/02 10:33:46;;;;;;;10.70;4.40;;;;;;;22.30;63.54;100101.03;5550312;32;34650;-58
2023/06/02 10:37:01;;;;;;;15.35;6.07;;;;;;;22.34;64.84;100104.59;5550560;32;34459;-58
2023/06/02 10:40:04;;;;;;;9.82;6.28;;;;;;;22.22;66.60;100097.41;5556277;32;34382;-58
2023/06/02 10:43:12;;;;;;;10.77;6.30;;;;;;;21.99;70.99;100108.31;5564886;32;34373;-58
2023/06/02 10:46:16;;;;;;;13.70;6.72;;;;;;;22.10;71.51;100107.72;5569300;32;34403;-58
2023/06/02 10:49:58;;;;;;;9.93;6.18;;;;;;;22.27;72.64;100101.78;5567519;32;34231;-58
2023/06/02 10:53:00;;;;;;;9.85;6.15;;;;;;;22.35;73.38;100092.56;5568008;32;35932;-58
2023/06/02 10:56:41;;;;;;;10.98;6.72;;;;;;;22.36;74.48;100096.06;5567518;32;33253;-58
2023/06/02 10:59:43;;;;;;;17.10;11.98;;;;;;;22.36;75.88;100104.25;5568837;32;34388;-58
